Time;durP1;ratioP1;P1;durP2;ratioP2;P2;SDS_P1;SDS_P2;PMS_P1;PMS_P2;Temp;Humidity;BMP_temperature;BMP_pressure;BME280_temperature;BME280_humidity;BME280_pressure;Samples;Min_cycle;Max_cycle;Signal;HPM_P1;HPM_P2
2020/03/26 00:02:10;;;;;;;4.78;4.26;;;;;;;19.50;29.48;100828.62;;;;-55
2020/03/26 00:05:07;;;;;;;5.29;4.26;;;;;;;19.49;29.51;100829.68;;;;-56
2020/03/26 00:08:07;;;;;;;4.69;4.11;;;;;;;19.48;29.51;100828.69;;;;-55
2020/03/26 00:11:07;;;;;;;4.81;4.25;;;;;;;19.46;29.52;100822.16;;;;-55
2020/03/26 00:14:07;;;;;;;5.31;4.31;;;;;;;19.45;29.55;100818.25;;;;-55
2020/03/26 00:17:07;;;;;;;4.99;4.35;;;;;;;19.43;29.51;100817.09;;;;-55
2020/03/26 00:20:07;;;;;;;5.29;4.16;;;;;;;19.42;29.58;100816.05;;;;-56
2020/03/26 00:23:07;;;;;;;4.77;4.15;;;;;;;19.40;29.52;100821.92;;;;-55
2020/03/26 00:26:07;;;;;;;4.96;4.46;;;;;;;19.39;29.60;100813.89;;;;-55
2020/03/26 00:32:07;;;;;;;4.62;4.16;;;;;;;19.35;29.60;100806.86;;;;-55
2020/03/26 00:35:08;;;;;;;4.95;4.09;;;;;;;19.33;29.64;100807.16;;;;-55
2020/03/26 00:38:07;;;;;;;4.56;4.05;;;;;;;19.32;29.60;100806.98;;;;-55
2020/03/26 00:41:07;;;;;;;5.27;4.31;;;;;;;19.31;29.63;100811.19;;;;-55
2020/03/26 00:44:07;;;;;;;4.60;4.06;;;;;;;19.30;29.66;100797.23;;;;-55
2020/03/26 00:47:07;;;;;;;5.38;4.28;;;;;;;19.29;29.65;100801.27;;;;-55
2020/03/26 00:50:07;;;;;;;5.10;4.28;;;;;;;19.27;29.72;100794.73;;;;-55
2020/03/26 00:53:07;;;;;;;4.82;4.07;;;;;;;19.25;29.72;100787.09;;;;-55
2020/03/26 00:56:07;;;;;;;5.05;4.21;;;;;;;19.24;29.70;100785.70;;;;-54
2020/03/26 00:59:07;;;;;;;4.83;4.33;;;;;;;19.23;29.71;100782.30;;;;-55
2020/03/26 01:02:07;;;;;;;4.77;4.27;;;;;;;19.22;29.71;100773.48;;;;-55
2020/03/26 01:06:07;;;;;;;4.61;3.91;;;;;;;19.20;29.78;100778.75;;;;-55
2020/03/26 01:09:07;;;;;;;4.85;3.98;;;;;;;19.19;29.74;100772.66;;;;-56
2020/03/26 01:13:07;;;;;;;4.90;4.29;;;;;;;19.18;29.78;100777.36;;;;-55
2020/03/26 01:17:07;;;;;;;4.47;3.67;;;;;;;19.16;29.81;100778.44;;;;-55
2020/03/26 01:20:07;;;;;;;4.42;3.98;;;;;;;19.15;29.81;100780.89;;;;-55
2020/03/26 01:23:07;;;;;;;4.89;3.95;;;;;;;19.14;29.83;100769.45;;;;-56
2020/03/26 01:26:07;;;;;;;4.97;4.41;;;;;;;19.13;29.89;100763.84;;;;-56
2020/03/26 01:29:07;;;;;;;4.60;3.83;;;;;;;19.11;29.86;100759.94;;;;-55
2020/03/26 01:32:07;;;;;;;5.65;3.98;;;;;;;19.09;29.84;100753.20;;;;-55
2020/03/26 01:35:07;;;;;;;4.69;3.97;;;;;;;19.07;29.87;100748.19;;;;-55
2020/03/26 01:38:07;;;;;;;4.01;3.61;;;;;;;19.07;29.87;100749.65;;;;-56
2020/03/26 01:41:07;;;;;;;4.22;3.82;;;;;;;19.06;29.86;100750.36;;;;-56
2020/03/26 01:44:07;;;;;;;4.50;4.05;;;;;;;19.05;29.87;100754.40;;;;-55
2020/03/26 01:47:07;;;;;;;4.37;3.97;;;;;;;19.04;29.89;100747.32;;;;-55
2020/03/26 01:50:07;;;;;;;4.41;4.01;;;;;;;19.02;29.92;100748.44;;;;-55
2020/03/26 01:53:07;;;;;;;4.09;3.65;;;;;;;19.02;29.87;100744.81;;;;-56
2020/03/26 01:56:07;;;;;;;5.03;4.01;;;;;;;19.01;29.99;100741.84;;;;-55
2020/03/26 01:59:07;;;;;;;4.15;3.75;;;;;;;19.00;29.97;100733.98;;;;-55
2020/03/26 02:02:07;;;;;;;4.17;3.77;;;;;;;18.99;29.96;100737.95;;;;-55
2020/03/26 02:05:07;;;;;;;4.18;3.77;;;;;;;18.98;30.00;100735.73;;;;-55
2020/03/26 02:08:07;;;;;;;4.55;4.09;;;;;;;18.97;29.99;100733.17;;;;-55
2020/03/26 02:11:07;;;;;;;4.02;3.62;;;;;;;18.95;29.96;100735.41;;;;-54
2020/03/26 02:14:07;;;;;;;4.49;3.86;;;;;;;18.95;30.03;100732.56;;;;-56
2020/03/26 02:17:07;;;;;;;4.14;3.74;;;;;;;18.93;30.00;100728.39;;;;-55
2020/03/26 02:20:07;;;;;;;4.59;3.91;;;;;;;18.93;30.08;100726.48;;;;-55
2020/03/26 02:23:07;;;;;;;4.58;4.05;;;;;;;18.92;30.04;100729.00;;;;-56
2020/03/26 02:26:07;;;;;;;3.99;3.59;;;;;;;18.91;30.03;100727.84;;;;-56
2020/03/26 02:32:12;;;;;;;4.52;3.79;;;;;;;18.89;30.00;100731.69;;;;-55
2020/03/26 02:38:07;;;;;;;4.43;3.61;;;;;;;18.88;30.01;100730.20;;;;-55
2020/03/26 02:41:07;;;;;;;4.36;3.61;;;;;;;18.86;30.08;100733.66;;;;-55
2020/03/26 02:44:07;;;;;;;4.03;3.62;;;;;;;18.85;30.03;100724.56;;;;-55
2020/03/26 02:47:07;;;;;;;3.98;3.58;;;;;;;18.84;30.04;100722.50;;;;-55
2020/03/26 02:50:07;;;;;;;4.74;3.67;;;;;;;18.83;30.08;100724.91;;;;-55
2020/03/26 02:53:07;;;;;;;4.57;3.60;;;;;;;18.83;30.02;100721.45;;;;-55
2020/03/26 02:56:07;;;;;;;3.96;3.55;;;;;;;18.82;30.10;100723.03;;;;-56
2020/03/26 02:59:07;;;;;;;6.37;3.53;;;;;;;18.81;30.08;100728.15;;;;-55
2020/03/26 03:02:07;;;;;;;4.05;3.59;;;;;;;18.80;30.09;100724.75;;;;-55
2020/03/26 03:05:07;;;;;;;4.18;3.53;;;;;;;18.79;30.00;100719.58;;;;-55
2020/03/26 03:08:07;;;;;;;4.39;3.90;;;;;;;18.78;30.07;100717.00;;;;-55
2020/03/26 03:11:07;;;;;;;3.97;3.55;;;;;;;18.77;30.11;100721.13;;;;-55
2020/03/26 03:14:07;;;;;;;3.74;3.40;;;;;;;18.75;30.09;100718.47;;;;-55
2020/03/26 03:17:07;;;;;;;3.95;3.50;;;;;;;18.74;30.11;100714.46;;;;-56
2020/03/26 03:20:07;;;;;;;3.62;3.31;;;;;;;18.74;30.13;100706.83;;;;-56
2020/03/26 03:23:07;;;;;;;4.15;3.47;;;;;;;18.72;30.08;100714.80;;;;-55
2020/03/26 03:26:07;;;;;;;3.94;3.41;;;;;;;18.72;30.13;100709.34;;;;-55
2020/03/26 03:29:07;;;;;;;3.84;3.38;;;;;;;18.70;30.11;100710.84;;;;-55
2020/03/26 03:32:07;;;;;;;3.89;3.49;;;;;;;18.71;30.11;100714.47;;;;-55
2020/03/26 03:35:07;;;;;;;4.97;3.61;;;;;;;18.70;30.12;100710.00;;;;-55
2020/03/26 03:38:07;;;;;;;3.67;3.37;;;;;;;18.68;30.18;100707.72;;;;-55
2020/03/26 03:41:07;;;;;;;4.13;3.54;;;;;;;18.68;30.16;100704.62;;;;-55
2020/03/26 03:44:07;;;;;;;4.05;3.65;;;;;;;18.67;30.18;100708.08;;;;-56
2020/03/26 03:47:07;;;;;;;3.69;3.28;;;;;;;18.67;30.18;100710.52;;;;-55
2020/03/26 03:50:07;;;;;;;4.01;3.49;;;;;;;18.66;30.17;100707.84;;;;-55
2020/03/26 03:53:07;;;;;;;3.97;3.57;;;;;;;18.65;30.20;100716.10;;;;-55
2020/03/26 03:56:07;;;;;;;3.89;3.49;;;;;;;18.64;30.22;100711.20;;;;-55
2020/03/26 03:59:07;;;;;;;3.83;3.43;;;;;;;18.63;30.20;100722.08;;;;-55
2020/03/26 04:02:07;;;;;;;3.66;3.33;;;;;;;18.62;30.21;100716.45;;;;-55
2020/03/26 04:05:07;;;;;;;3.50;3.20;;;;;;;18.62;30.20;100715.28;;;;-55
2020/03/26 04:08:07;;;;;;;5.09;3.52;;;;;;;18.60;30.21;100714.84;;;;-55
2020/03/26 04:11:07;;;;;;;3.86;3.36;;;;;;;18.60;30.23;100706.58;;;;-55
2020/03/26 04:14:07;;;;;;;3.87;3.47;;;;;;;18.59;30.27;100710.44;;;;-55
2020/03/26 04:17:07;;;;;;;3.73;3.39;;;;;;;18.58;30.26;100712.16;;;;-55
2020/03/26 04:20:07;;;;;;;3.55;3.25;;;;;;;18.58;30.25;100707.94;;;;-55
2020/03/26 04:23:07;;;;;;;3.68;3.29;;;;;;;18.57;30.22;100714.52;;;;-55
2020/03/26 04:26:07;;;;;;;3.73;3.37;;;;;;;18.56;30.15;100710.94;;;;-55
2020/03/26 04:29:07;;;;;;;3.61;3.31;;;;;;;18.55;30.26;100711.51;;;;-54
2020/03/26 04:32:07;;;;;;;3.71;3.31;;;;;;;18.55;30.26;100712.41;;;;-55
2020/03/26 04:35:07;;;;;;;3.77;3.35;;;;;;;18.54;30.25;100704.98;;;;-55
2020/03/26 04:38:07;;;;;;;4.18;3.62;;;;;;;18.53;30.21;100711.91;;;;-55
2020/03/26 04:44:15;;;;;;;3.91;3.58;;;;;;;18.53;30.28;100705.55;;;;-55
2020/03/26 04:47:17;;;;;;;3.53;3.23;;;;;;;18.53;30.40;100706.44;;;;-55
2020/03/26 04:50:07;;;;;;;3.93;3.25;;;;;;;18.53;30.46;100690.66;;;;-55
2020/03/26 04:53:07;;;;;;;3.65;3.32;;;;;;;18.55;30.39;100698.52;;;;-55
2020/03/26 04:56:07;;;;;;;4.00;3.40;;;;;;;18.56;30.36;100692.22;;;;-55
2020/03/26 04:59:07;;;;;;;4.89;3.29;;;;;;;18.58;30.48;100695.00;;;;-54
2020/03/26 05:02:07;;;;;;;3.67;3.37;;;;;;;18.59;30.51;100699.34;;;;-54
2020/03/26 05:05:07;;;;;;;3.60;3.30;;;;;;;18.61;30.72;100697.27;;;;-55
2020/03/26 05:08:07;;;;;;;3.69;3.25;;;;;;;18.66;30.66;100691.90;;;;-55
2020/03/26 05:11:07;;;;;;;3.74;3.35;;;;;;;18.69;30.65;100686.09;;;;-55
2020/03/26 05:14:07;;;;;;;3.30;3.00;;;;;;;18.72;30.62;100687.59;;;;-54
2020/03/26 05:17:07;;;;;;;3.56;3.26;;;;;;;18.77;30.62;100685.00;;;;-55
2020/03/26 05:20:07;;;;;;;3.43;3.06;;;;;;;18.81;30.62;100685.44;;;;-55
2020/03/26 05:23:07;;;;;;;3.36;3.06;;;;;;;18.86;30.55;100690.14;;;;-54
2020/03/26 05:26:07;;;;;;;3.69;3.30;;;;;;;18.90;30.56;100688.91;;;;-55
2020/03/26 05:29:07;;;;;;;3.35;2.95;;;;;;;18.93;30.65;100687.39;;;;-54
2020/03/26 05:32:07;;;;;;;3.40;3.10;;;;;;;18.97;30.61;100686.41;;;;-55
2020/03/26 05:35:07;;;;;;;3.41;3.11;;;;;;;19.00;30.63;100681.60;;;;-55
2020/03/26 05:38:07;;;;;;;3.53;3.20;;;;;;;19.04;30.69;100692.02;;;;-55
2020/03/26 05:41:07;;;;;;;3.42;3.12;;;;;;;19.06;30.65;100687.03;;;;-55
2020/03/26 05:44:07;;;;;;;3.61;3.30;;;;;;;19.11;30.68;100689.19;;;;-54
2020/03/26 05:47:07;;;;;;;3.59;3.12;;;;;;;19.16;30.68;100697.56;;;;-55
2020/03/26 05:50:07;;;;;;;3.53;3.23;;;;;;;19.18;30.67;100703.30;;;;-54
2020/03/26 05:53:07;;;;;;;8.21;4.97;;;;;;;18.90;27.60;100711.50;;;;-54
2020/03/26 05:56:07;;;;;;;7.89;5.11;;;;;;;18.60;26.17;100726.48;;;;-54
2020/03/26 05:59:07;;;;;;;7.23;5.22;;;;;;;18.37;25.35;100733.06;;;;-53
2020/03/26 06:02:09;;;;;;;8.86;5.87;;;;;;;18.19;24.88;100734.57;;;;-54
2020/03/26 06:05:18;;;;;;;7.73;6.97;;;;;;;18.06;24.35;100739.31;;;;-54
2020/03/26 06:08:07;;;;;;;8.76;6.94;;;;;;;17.90;24.07;100745.95;;;;-54
2020/03/26 06:11:07;;;;;;;11.19;9.90;;;;;;;18.00;25.05;100745.27;;;;-47
2020/03/26 06:14:07;;;;;;;13.46;12.05;;;;;;;18.21;25.55;100748.16;;;;-51
2020/03/26 06:17:07;;;;;;;10.09;9.19;;;;;;;18.35;25.87;100748.06;;;;-51
2020/03/26 06:20:07;;;;;;;9.36;8.30;;;;;;;18.46;26.17;100755.69;;;;-46
2020/03/26 06:23:07;;;;;;;8.67;7.93;;;;;;;18.59;26.41;100757.88;;;;-49
2020/03/26 06:26:07;;;;;;;8.45;7.22;;;;;;;18.67;27.01;100758.44;;;;-49
2020/03/26 06:29:07;;;;;;;9.36;5.99;;;;;;;18.75;27.32;100756.73;;;;-49
2020/03/26 06:32:07;;;;;;;5.89;4.65;;;;;;;18.83;27.50;100761.05;;;;-49
2020/03/26 06:35:07;;;;;;;10.16;9.17;;;;;;;18.87;27.58;100756.69;;;;-49
2020/03/26 06:38:07;;;;;;;7.62;6.90;;;;;;;18.92;27.74;100750.31;;;;-49
2020/03/26 06:41:07;;;;;;;6.12;5.36;;;;;;;18.95;27.84;100763.80;;;;-49
2020/03/26 06:44:07;;;;;;;6.43;5.72;;;;;;;18.98;27.93;100760.45;;;;-49
2020/03/26 06:47:07;;;;;;;6.12;5.15;;;;;;;19.01;28.05;100757.81;;;;-49
2020/03/26 06:50:07;;;;;;;26.51;24.38;;;;;;;19.03;28.11;100762.44;;;;-49
2020/03/26 06:53:07;;;;;;;66.81;61.38;;;;;;;19.05;28.22;100772.74;;;;-49
2020/03/26 06:56:07;;;;;;;13.62;12.48;;;;;;;19.06;28.25;100768.52;;;;-49
2020/03/26 06:59:07;;;;;;;11.25;10.25;;;;;;;19.07;28.36;100772.69;;;;-49
2020/03/26 07:02:10;;;;;;;5.97;5.41;;;;;;;19.09;28.42;100772.69;;;;-50
2020/03/26 07:05:07;;;;;;;10.70;9.83;;;;;;;19.10;28.49;100779.43;;;;-49
2020/03/26 07:08:07;;;;;;;6.05;5.43;;;;;;;19.09;28.52;100775.36;;;;-49
2020/03/26 07:11:07;;;;;;;6.07;5.23;;;;;;;19.09;28.55;100776.64;;;;-49
2020/03/26 07:14:07;;;;;;;5.89;5.33;;;;;;;19.09;28.64;100776.53;;;;-49
2020/03/26 07:17:26;;;;;;;5.43;4.65;;;;;;;19.09;28.70;100781.60;;;;-49
2020/03/26 07:20:07;;;;;;;5.35;4.85;;;;;;;19.09;28.73;100778.65;;;;-49
2020/03/26 07:23:07;;;;;;;5.35;4.83;;;;;;;19.09;28.76;100782.83;;;;-49
2020/03/26 07:26:07;;;;;;;5.73;5.21;;;;;;;19.09;28.82;100785.33;;;;-49
2020/03/26 07:29:07;;;;;;;5.15;4.67;;;;;;;19.08;28.88;100787.14;;;;-49
2020/03/26 07:32:07;;;;;;;6.45;5.90;;;;;;;19.08;28.93;100791.31;;;;-49
2020/03/26 07:35:07;;;;;;;4.76;4.35;;;;;;;19.08;28.96;100784.28;;;;-49
2020/03/26 07:38:07;;;;;;;6.58;6.06;;;;;;;19.07;29.03;100779.28;;;;-56
2020/03/26 07:41:07;;;;;;;6.13;5.30;;;;;;;19.05;29.09;100783.91;;;;-56
2020/03/26 07:44:07;;;;;;;7.30;6.70;;;;;;;19.05;29.14;100787.55;;;;-57
2020/03/26 07:47:07;;;;;;;5.23;3.97;;;;;;;19.05;29.20;100795.25;;;;-56
2020/03/26 07:50:07;;;;;;;3.99;3.62;;;;;;;19.04;29.23;100789.84;;;;-56
2020/03/26 07:53:07;;;;;;;4.12;3.73;;;;;;;19.03;29.32;100798.70;;;;-57
2020/03/26 07:56:07;;;;;;;4.57;4.17;;;;;;;19.02;29.34;100791.95;;;;-56
2020/03/26 07:59:07;;;;;;;4.85;4.45;;;;;;;19.02;29.40;100790.78;;;;-56
2020/03/26 08:02:07;;;;;;;3.90;3.54;;;;;;;19.01;29.45;100794.75;;;;-56
2020/03/26 08:05:07;;;;;;;3.87;3.40;;;;;;;19.01;29.43;100807.13;;;;-56
2020/03/26 08:08:07;;;;;;;4.76;4.01;;;;;;;19.00;29.57;100795.36;;;;-56
2020/03/26 08:11:07;;;;;;;4.40;4.00;;;;;;;19.01;29.82;100795.74;;;;-56
2020/03/26 08:14:07;;;;;;;4.02;3.61;;;;;;;19.01;29.70;100799.76;;;;-58
2020/03/26 08:17:07;;;;;;;5.57;5.08;;;;;;;19.02;29.50;100801.39;;;;-57
2020/03/26 08:20:07;;;;;;;6.57;5.97;;;;;;;19.02;29.52;100802.72;;;;-57
2020/03/26 08:23:07;;;;;;;7.67;4.20;;;;;;;19.02;29.60;100803.90;;;;-57
2020/03/26 08:26:07;;;;;;;5.25;4.15;;;;;;;19.02;29.59;100802.66;;;;-57
2020/03/26 08:29:07;;;;;;;5.40;4.82;;;;;;;19.01;29.56;100802.01;;;;-57
2020/03/26 08:32:07;;;;;;;5.17;4.70;;;;;;;19.00;29.54;100807.98;;;;-57
2020/03/26 08:35:07;;;;;;;4.23;3.83;;;;;;;19.00;29.54;100812.27;;;;-58
2020/03/26 08:38:07;;;;;;;5.56;5.07;;;;;;;19.00;29.52;100808.74;;;;-58
2020/03/26 08:41:07;;;;;;;4.13;3.73;;;;;;;18.99;29.56;100808.02;;;;-58
2020/03/26 08:44:07;;;;;;;4.07;3.31;;;;;;;18.98;29.47;100808.21;;;;-58
2020/03/26 08:47:07;;;;;;;4.64;3.29;;;;;;;18.98;29.49;100810.98;;;;-58
2020/03/26 08:50:07;;;;;;;4.03;3.30;;;;;;;18.97;29.40;100813.34;;;;-57
2020/03/26 08:53:07;;;;;;;4.01;3.39;;;;;;;18.96;29.52;100816.91;;;;-57
2020/03/26 08:56:07;;;;;;;3.93;3.61;;;;;;;18.97;29.47;100818.70;;;;-57
2020/03/26 08:59:07;;;;;;;3.76;3.27;;;;;;;18.95;29.53;100818.76;;;;-57
2020/03/26 09:02:07;;;;;;;4.19;3.37;;;;;;;18.93;29.52;100824.95;;;;-57
2020/03/26 09:05:07;;;;;;;4.23;3.34;;;;;;;18.93;29.52;100819.42;;;;-57
2020/03/26 09:08:07;;;;;;;3.73;3.35;;;;;;;18.93;29.52;100817.98;;;;-57
2020/03/26 09:11:07;;;;;;;3.64;3.20;;;;;;;18.91;29.52;100819.59;;;;-58
2020/03/26 09:14:07;;;;;;;3.71;3.37;;;;;;;18.91;29.54;100814.97;;;;-58
2020/03/26 09:17:07;;;;;;;4.81;3.29;;;;;;;18.91;30.01;100819.16;;;;-60
2020/03/26 09:20:07;;;;;;;3.58;3.27;;;;;;;18.92;30.10;100816.47;;;;-61
2020/03/26 09:26:16;;;;;;;3.95;3.50;;;;;;;18.96;30.10;100808.21;;;;-63
2020/03/26 09:29:07;;;;;;;4.49;3.52;;;;;;;19.03;30.03;100805.90;;;;-52
2020/03/26 09:32:07;;;;;;;3.53;3.15;;;;;;;19.07;30.22;100803.89;;;;-55
2020/03/26 09:35:07;;;;;;;3.87;3.13;;;;;;;19.14;30.44;100797.96;;;;-57
2020/03/26 09:38:07;;;;;;;3.45;3.15;;;;;;;19.21;30.47;100797.04;;;;-56
2020/03/26 09:41:07;;;;;;;3.38;3.08;;;;;;;19.27;30.51;100791.39;;;;-56
2020/03/26 09:44:07;;;;;;;5.38;3.30;;;;;;;19.32;30.57;100795.77;;;;-52
2020/03/26 09:47:07;;;;;;;4.53;2.91;;;;;;;19.38;30.69;100799.59;;;;-53
2020/03/26 09:50:07;;;;;;;4.52;3.28;;;;;;;19.44;30.71;100807.89;;;;-55
2020/03/26 09:53:07;;;;;;;4.65;3.14;;;;;;;19.51;30.72;100801.53;;;;-54
2020/03/26 09:56:07;;;;;;;5.27;3.21;;;;;;;19.52;30.45;100797.40;;;;-57
2020/03/26 09:59:07;;;;;;;4.13;3.15;;;;;;;19.55;30.55;100806.59;;;;-56
2020/03/26 10:02:07;;;;;;;3.83;3.22;;;;;;;19.57;30.54;100793.69;;;;-57
2020/03/26 10:05:07;;;;;;;4.42;3.34;;;;;;;19.60;30.62;100794.11;;;;-57
2020/03/26 10:08:07;;;;;;;4.85;3.06;;;;;;;19.63;30.42;100796.83;;;;-56
2020/03/26 10:11:07;;;;;;;5.25;3.28;;;;;;;19.63;30.58;100796.49;;;;-53
2020/03/26 10:14:07;;;;;;;6.87;3.19;;;;;;;19.67;30.58;100800.38;;;;-53
2020/03/26 10:17:07;;;;;;;4.52;3.19;;;;;;;19.69;30.70;100798.08;;;;-53
2020/03/26 10:20:07;;;;;;;4.17;2.97;;;;;;;19.72;30.57;100802.53;;;;-51
2020/03/26 10:23:07;;;;;;;3.35;3.05;;;;;;;19.74;30.65;100794.86;;;;-55
2020/03/26 10:26:07;;;;;;;6.07;3.15;;;;;;;19.77;30.73;100796.59;;;;-58
2020/03/26 10:29:07;;;;;;;4.54;2.83;;;;;;;19.79;30.50;100795.11;;;;-56
2020/03/26 10:32:07;;;;;;;3.82;3.07;;;;;;;19.81;30.36;100799.22;;;;-56
2020/03/26 10:35:07;;;;;;;3.99;2.97;;;;;;;19.81;29.98;100792.92;;;;-56
2020/03/26 10:38:07;;;;;;;4.86;3.00;;;;;;;19.83;29.84;100797.54;;;;-57
2020/03/26 10:41:07;;;;;;;3.57;2.96;;;;;;;19.84;29.85;100794.18;;;;-57
2020/03/26 10:44:07;;;;;;;4.98;2.99;;;;;;;19.85;29.59;100791.27;;;;-56
2020/03/26 10:47:07;;;;;;;3.61;3.25;;;;;;;19.85;29.67;100779.98;;;;-56
2020/03/26 10:50:07;;;;;;;5.67;2.88;;;;;;;19.87;30.13;100784.27;;;;-62
2020/03/26 10:53:07;;;;;;;6.39;3.28;;;;;;;19.91;30.40;100786.02;;;;-57
2020/03/26 10:56:07;;;;;;;6.90;3.20;;;;;;;19.93;30.18;100794.63;;;;-59
2020/03/26 10:59:07;;;;;;;6.39;3.29;;;;;;;19.95;30.42;100788.56;;;;-54
2020/03/26 11:02:07;;;;;;;5.93;3.35;;;;;;;19.97;30.61;100787.59;;;;-56
2020/03/26 11:05:07;;;;;;;3.56;3.15;;;;;;;20.00;30.53;100790.75;;;;-56
2020/03/26 11:08:07;;;;;;;4.07;3.05;;;;;;;20.01;30.69;100789.29;;;;-56
2020/03/26 11:11:07;;;;;;;3.75;2.72;;;;;;;20.03;30.60;100786.64;;;;-54
2020/03/26 11:14:07;;;;;;;3.73;2.78;;;;;;;20.04;30.75;100786.08;;;;-55
2020/03/26 11:17:07;;;;;;;3.21;2.71;;;;;;;20.07;30.70;100789.24;;;;-54
2020/03/26 11:20:07;;;;;;;4.25;2.75;;;;;;;20.09;30.81;100783.97;;;;-55
2020/03/26 11:23:07;;;;;;;3.44;2.94;;;;;;;20.11;30.88;100792.62;;;;-54
2020/03/26 11:26:07;;;;;;;4.37;2.83;;;;;;;20.13;30.79;100783.15;;;;-56
2020/03/26 11:29:07;;;;;;;3.67;2.99;;;;;;;20.13;30.77;100788.42;;;;-55
2020/03/26 11:32:07;;;;;;;4.07;3.07;;;;;;;20.15;30.41;100786.60;;;;-62
2020/03/26 11:35:07;;;;;;;3.75;2.97;;;;;;;20.17;30.59;100782.30;;;;-58
2020/03/26 11:38:07;;;;;;;4.55;2.91;;;;;;;20.19;30.55;100789.20;;;;-57
2020/03/26 11:41:07;;;;;;;3.13;2.83;;;;;;;20.19;30.82;100788.77;;;;-54
2020/03/26 11:44:07;;;;;;;3.43;2.79;;;;;;;20.21;30.74;100788.80;;;;-64
2020/03/26 11:47:07;;;;;;;3.92;2.89;;;;;;;20.21;30.65;100783.92;;;;-64
2020/03/26 11:50:07;;;;;;;3.31;2.71;;;;;;;20.23;30.92;100777.41;;;;-54
2020/03/26 11:53:07;;;;;;;3.84;2.91;;;;;;;20.25;30.79;100762.11;;;;-52
2020/03/26 11:56:07;;;;;;;4.07;2.83;;;;;;;20.27;31.11;100768.06;;;;-50
2020/03/26 11:59:15;;;;;;;3.95;2.99;;;;;;;20.28;30.76;100759.93;;;;-48
2020/03/26 12:02:07;;;;;;;3.97;3.05;;;;;;;20.26;29.41;100756.55;;;;-48
2020/03/26 12:05:07;;;;;;;3.41;3.03;;;;;;;20.21;28.35;100755.52;;;;-48
2020/03/26 12:08:07;;;;;;;3.41;3.11;;;;;;;20.19;28.77;100754.92;;;;-48
2020/03/26 12:11:07;;;;;;;5.94;3.31;;;;;;;20.17;28.60;100745.61;;;;-47
2020/03/26 12:14:07;;;;;;;3.48;3.08;;;;;;;20.15;28.35;100754.13;;;;-48
2020/03/26 12:17:07;;;;;;;4.69;2.94;;;;;;;20.13;28.31;100748.84;;;;-48
2020/03/26 12:20:07;;;;;;;3.40;2.99;;;;;;;20.12;28.08;100739.41;;;;-48
2020/03/26 12:23:07;;;;;;;3.36;3.06;;;;;;;20.11;28.17;100738.52;;;;-48
2020/03/26 12:26:07;;;;;;;3.29;2.95;;;;;;;20.10;28.14;100735.28;;;;-48
2020/03/26 12:29:07;;;;;;;3.57;3.25;;;;;;;20.09;27.93;100741.04;;;;-48
2020/03/26 12:32:07;;;;;;;4.69;3.24;;;;;;;20.09;28.18;100740.03;;;;-48
2020/03/26 12:35:07;;;;;;;3.58;3.15;;;;;;;20.07;28.02;100735.75;;;;-48
2020/03/26 12:38:07;;;;;;;3.51;3.03;;;;;;;20.07;27.93;100739.61;;;;-48
2020/03/26 12:41:07;;;;;;;3.10;2.88;;;;;;;20.05;27.94;100734.48;;;;-48
2020/03/26 12:44:07;;;;;;;3.27;2.97;;;;;;;20.05;27.86;100723.86;;;;-48
2020/03/26 12:47:07;;;;;;;3.51;3.15;;;;;;;20.05;27.82;100729.22;;;;-48
2020/03/26 12:50:07;;;;;;;3.29;2.96;;;;;;;20.04;27.82;100727.23;;;;-47
2020/03/26 12:53:07;;;;;;;3.31;2.99;;;;;;;20.02;27.82;100721.27;;;;-48
2020/03/26 12:56:07;;;;;;;3.23;2.91;;;;;;;20.03;28.51;100727.79;;;;-49
2020/03/26 12:59:07;;;;;;;3.47;3.17;;;;;;;20.05;28.73;100723.36;;;;-49
2020/03/26 13:02:07;;;;;;;3.53;2.93;;;;;;;20.06;28.77;100715.81;;;;-55
2020/03/26 13:05:07;;;;;;;3.45;3.15;;;;;;;20.08;28.99;100717.93;;;;-55
2020/03/26 13:08:07;;;;;;;3.35;2.81;;;;;;;20.08;28.80;100720.21;;;;-52
2020/03/26 13:11:07;;;;;;;6.67;3.15;;;;;;;20.09;28.77;100715.89;;;;-55
2020/03/26 13:14:07;;;;;;;3.47;2.89;;;;;;;20.10;28.76;100722.31;;;;-53
2020/03/26 13:17:07;;;;;;;3.55;3.14;;;;;;;20.11;28.83;100729.63;;;;-47
2020/03/26 13:20:07;;;;;;;3.33;2.93;;;;;;;20.10;28.87;100722.81;;;;-60
2020/03/26 13:23:07;;;;;;;3.73;3.08;;;;;;;20.11;28.63;100725.27;;;;-50
2020/03/26 13:26:07;;;;;;;3.23;2.87;;;;;;;20.12;28.87;100723.80;;;;-54
2020/03/26 13:29:07;;;;;;;3.61;3.25;;;;;;;20.13;28.77;100724.52;;;;-47
2020/03/26 13:32:07;;;;;;;4.45;3.17;;;;;;;20.13;28.67;100717.75;;;;-47
2020/03/26 13:35:07;;;;;;;3.28;2.81;;;;;;;20.14;28.79;100717.97;;;;-48
2020/03/26 13:38:07;;;;;;;5.92;3.01;;;;;;;20.15;28.78;100715.67;;;;-48
2020/03/26 13:41:07;;;;;;;3.57;2.91;;;;;;;20.17;28.93;100704.42;;;;-59
2020/03/26 13:44:07;;;;;;;3.26;2.96;;;;;;;20.16;28.73;100704.21;;;;-56
2020/03/26 13:47:07;;;;;;;3.99;2.92;;;;;;;20.17;28.97;100697.88;;;;-52
2020/03/26 13:50:07;;;;;;;3.31;3.01;;;;;;;20.17;28.70;100698.55;;;;-50
2020/03/26 13:53:07;;;;;;;3.92;3.11;;;;;;;20.16;28.90;100695.83;;;;-51
2020/03/26 13:56:07;;;;;;;4.62;3.14;;;;;;;20.16;28.64;100701.42;;;;-55
2020/03/26 13:59:07;;;;;;;3.25;2.95;;;;;;;20.17;29.08;100694.69;;;;-50
2020/03/26 14:02:07;;;;;;;4.52;3.24;;;;;;;20.18;29.15;100697.42;;;;-48
2020/03/26 14:05:07;;;;;;;5.44;3.07;;;;;;;20.20;29.27;100702.20;;;;-47
2020/03/26 14:08:07;;;;;;;4.38;3.06;;;;;;;20.25;29.63;100699.82;;;;-48
2020/03/26 14:11:09;;;;;;;3.78;2.94;;;;;;;20.25;29.26;100704.02;;;;-48
2020/03/26 14:14:07;;;;;;;3.45;2.87;;;;;;;20.25;29.58;100701.77;;;;-47
2020/03/26 14:17:08;;;;;;;4.04;2.93;;;;;;;20.26;29.59;100704.59;;;;-47
2020/03/26 14:20:07;;;;;;;3.14;2.73;;;;;;;20.28;29.89;100704.02;;;;-48
2020/03/26 14:23:07;;;;;;;4.42;2.65;;;;;;;20.27;29.34;100703.59;;;;-47
2020/03/26 14:26:07;;;;;;;5.29;2.87;;;;;;;20.27;29.44;100699.13;;;;-46
2020/03/26 14:29:07;;;;;;;4.20;2.79;;;;;;;20.27;29.38;100698.84;;;;-47
2020/03/26 14:32:07;;;;;;;3.65;2.78;;;;;;;20.27;29.22;100696.33;;;;-46
2020/03/26 14:35:07;;;;;;;3.20;2.73;;;;;;;20.27;29.00;100692.70;;;;-48
2020/03/26 14:38:07;;;;;;;3.35;2.88;;;;;;;20.27;28.96;100690.52;;;;-47
2020/03/26 14:41:07;;;;;;;3.09;2.79;;;;;;;20.27;28.93;100684.75;;;;-47
2020/03/26 14:44:07;;;;;;;4.36;3.39;;;;;;;20.27;28.08;100687.16;;;;-47
2020/03/26 14:47:07;;;;;;;3.21;2.85;;;;;;;20.29;28.75;100691.28;;;;-47
2020/03/26 14:50:07;;;;;;;3.18;2.85;;;;;;;20.30;29.09;100691.53;;;;-47
2020/03/26 14:53:07;;;;;;;5.05;2.85;;;;;;;20.34;29.40;100685.73;;;;-47
2020/03/26 14:56:07;;;;;;;4.10;2.77;;;;;;;20.37;29.64;100688.78;;;;-46
2020/03/26 14:59:07;;;;;;;3.73;2.50;;;;;;;20.38;29.98;100683.63;;;;-46
2020/03/26 15:02:07;;;;;;;3.00;2.59;;;;;;;20.36;29.79;100681.30;;;;-47
2020/03/26 15:05:07;;;;;;;3.42;2.61;;;;;;;20.35;29.70;100682.09;;;;-47
2020/03/26 15:08:07;;;;;;;7.06;2.80;;;;;;;20.35;29.49;100676.39;;;;-46
2020/03/26 15:11:07;;;;;;;5.70;2.70;;;;;;;20.38;30.08;100684.14;;;;-47
2020/03/26 15:14:07;;;;;;;3.25;2.80;;;;;;;20.39;29.97;100681.16;;;;-46
2020/03/26 15:17:07;;;;;;;4.33;2.69;;;;;;;20.42;30.18;100685.98;;;;-51
2020/03/26 15:20:07;;;;;;;2.81;2.61;;;;;;;20.43;30.31;100678.48;;;;-50
2020/03/26 15:23:07;;;;;;;3.38;2.61;;;;;;;20.45;30.41;100683.88;;;;-46
2020/03/26 15:26:07;;;;;;;4.03;2.81;;;;;;;20.46;30.09;100676.10;;;;-50
2020/03/26 15:29:07;;;;;;;4.23;2.64;;;;;;;20.48;30.49;100673.73;;;;-49
2020/03/26 15:32:07;;;;;;;3.83;2.79;;;;;;;20.48;30.47;100678.03;;;;-48
2020/03/26 15:35:07;;;;;;;4.10;2.61;;;;;;;20.49;30.78;100675.33;;;;-54
2020/03/26 15:38:07;;;;;;;3.78;2.56;;;;;;;20.49;30.09;100674.16;;;;-51
2020/03/26 15:41:07;;;;;;;3.48;2.82;;;;;;;20.50;30.28;100679.73;;;;-49
2020/03/26 15:44:07;;;;;;;3.57;2.93;;;;;;;20.50;30.49;100681.25;;;;-46
2020/03/26 15:47:07;;;;;;;2.90;2.60;;;;;;;20.52;30.56;100678.77;;;;-52
2020/03/26 15:50:08;;;;;;;4.17;3.33;;;;;;;20.52;30.18;100690.56;;;;-45
2020/03/26 15:53:07;;;;;;;3.34;2.67;;;;;;;20.52;30.06;100698.81;;;;-48
2020/03/26 15:56:07;;;;;;;4.50;2.61;;;;;;;20.53;30.21;100700.97;;;;-48
2020/03/26 15:59:07;;;;;;;2.63;2.43;;;;;;;20.52;30.13;100707.70;;;;-48
2020/03/26 16:02:07;;;;;;;2.81;2.44;;;;;;;20.52;30.08;100707.70;;;;-48
2020/03/26 16:05:07;;;;;;;2.54;2.34;;;;;;;20.52;30.01;100707.30;;;;-48
2020/03/26 16:08:07;;;;;;;2.89;2.61;;;;;;;20.51;30.03;100707.09;;;;-48
2020/03/26 16:11:07;;;;;;;4.34;2.68;;;;;;;20.50;30.00;100704.86;;;;-48
2020/03/26 16:14:07;;;;;;;4.13;2.54;;;;;;;20.49;29.94;100699.72;;;;-48
2020/03/26 16:17:07;;;;;;;2.81;2.61;;;;;;;20.49;30.02;100703.02;;;;-48
2020/03/26 16:20:07;;;;;;;2.94;2.67;;;;;;;20.49;30.02;100708.41;;;;-49
2020/03/26 16:23:07;;;;;;;2.52;2.32;;;;;;;20.48;29.99;100698.10;;;;-48
2020/03/26 16:26:07;;;;;;;2.75;2.47;;;;;;;20.48;30.03;100696.05;;;;-48
2020/03/26 16:29:07;;;;;;;2.96;2.50;;;;;;;20.47;30.01;100695.71;;;;-48
2020/03/26 16:32:07;;;;;;;2.88;2.61;;;;;;;20.48;29.98;100686.09;;;;-48
2020/03/26 16:35:07;;;;;;;3.41;2.60;;;;;;;20.47;30.00;100684.09;;;;-48
2020/03/26 16:38:07;;;;;;;2.73;2.51;;;;;;;20.46;29.94;100683.42;;;;-49
2020/03/26 16:41:07;;;;;;;3.02;2.57;;;;;;;20.46;29.99;100683.98;;;;-49
2020/03/26 16:44:07;;;;;;;4.03;2.52;;;;;;;20.47;29.95;100684.94;;;;-48
2020/03/26 16:47:07;;;;;;;2.91;2.50;;;;;;;20.48;30.00;100683.97;;;;-48
2020/03/26 16:50:07;;;;;;;3.55;2.50;;;;;;;20.51;30.32;100675.88;;;;-47
2020/03/26 16:53:09;;;;;;;3.41;2.52;;;;;;;20.55;30.30;100677.73;;;;-47
2020/03/26 16:56:07;;;;;;;3.77;2.43;;;;;;;20.58;30.35;100680.89;;;;-49
2020/03/26 16:59:07;;;;;;;3.55;2.62;;;;;;;20.60;30.28;100680.63;;;;-51